createdAt,value
2022-11-23T00:02:31.087Z,66.58
2022-11-23T00:05:19.946Z,67.13
2022-11-23T00:08:09.095Z,67.38
2022-11-23T00:10:51.230Z,66.63
2022-11-23T00:13:39.950Z,67.02
2022-11-23T00:16:33.360Z,66.94
2022-11-23T00:19:15.081Z,66.86
2022-11-23T00:22:04.547Z,66.61
2022-11-23T00:24:59.208Z,67.45
2022-11-23T00:27:41.277Z,67.27
2022-11-23T00:30:31.060Z,67.60
2022-11-23T00:33:20.099Z,67.98
2022-11-23T00:36:22.980Z,67.86
2022-11-23T00:39:08.412Z,67.99
2022-11-23T00:41:57.996Z,68.33
2022-11-23T00:44:40.283Z,68.11
2022-11-23T00:47:28.989Z,69.28
2022-11-23T00:50:19.323Z,68.60
2022-11-23T00:53:00.950Z,69.11
2022-11-23T00:55:59.458Z,70.00
2022-11-23T00:58:42.015Z,69.26
2022-11-23T01:01:26.810Z,69.33
2022-11-23T01:04:19.958Z,69.03
2022-11-23T01:07:13.025Z,69.71
2022-11-23T01:09:55.286Z,68.70
2022-11-23T01:12:43.956Z,69.79
2022-11-23T01:15:26.377Z,69.84
2022-11-23T01:18:15.058Z,70.89
2022-11-23T01:20:57.804Z,69.82
2022-11-23T01:23:46.946Z,70.42
2022-11-23T01:26:36.336Z,70.91
2022-11-23T01:29:19.067Z,71.97
2022-11-23T01:32:07.979Z,72.34
2022-11-23T01:34:56.970Z,72.34
2022-11-23T01:37:46.083Z,71.76
2022-11-23T01:40:28.473Z,71.71
2022-11-23T01:43:24.087Z,71.80
2022-11-23T01:46:08.308Z,71.12
2022-11-23T01:49:07.079Z,71.75
2022-11-23T01:51:52.421Z,72.21
2022-11-23T01:54:52.012Z,71.57
2022-11-23T01:57:41.399Z,71.76
2022-11-23T02:00:29.941Z,71.38
2022-11-23T02:03:14.461Z,71.72
2022-11-23T02:06:09.582Z,72.00
2022-11-23T02:08:52.333Z,71.89
2022-11-23T02:11:41.074Z,71.80
2022-11-23T02:14:23.707Z,70.94
2022-11-23T02:17:14.014Z,71.17
2022-11-23T02:20:09.977Z,71.69
2022-11-23T02:23:30.944Z,71.97
2022-11-23T02:26:43.043Z,70.70
2022-11-23T02:29:36.003Z,70.47
2022-11-23T02:32:25.061Z,70.46
2022-11-23T02:35:14.043Z,70.42
2022-11-23T02:38:05.036Z,70.15
2022-11-23T02:40:47.625Z,70.40
2022-11-23T02:43:38.055Z,68.90
2022-11-23T02:46:27.009Z,69.59
2022-11-23T02:49:09.248Z,68.89
2022-11-23T02:51:58.065Z,68.77
2022-11-23T02:54:40.277Z,68.52
2022-11-23T02:57:29.126Z,68.18
2022-11-23T03:00:13.468Z,68.79
2022-11-23T03:03:03.106Z,68.44
2022-11-23T03:05:46.312Z,68.97
2022-11-23T03:08:35.008Z,67.66
2022-11-23T03:11:17.315Z,68.01
2022-11-23T03:14:06.039Z,67.18
2022-11-23T03:16:58.368Z,66.08
2022-11-23T03:19:53.062Z,64.46
2022-11-23T03:22:37.449Z,63.47
2022-11-23T03:25:27.992Z,61.91
2022-11-23T03:28:19.044Z,61.29
2022-11-23T03:31:01.377Z,58.64
2022-11-23T03:33:51.973Z,59.28
2022-11-23T03:36:42.009Z,54.28
2022-11-23T03:39:31.180Z,57.21
2022-11-23T03:42:40.101Z,52.08
2022-11-23T03:45:22.428Z,52.50
2022-11-23T03:48:11.052Z,50.92
2022-11-23T03:50:54.365Z,48.74
2022-11-23T03:53:43.913Z,48.18
2022-11-23T03:56:26.380Z,47.99
2022-11-23T03:59:15.904Z,42.87
2022-11-23T04:01:59.378Z,41.27
2022-11-23T04:04:51.893Z,40.49
2022-11-23T04:07:58.407Z,39.44
2022-11-23T04:10:47.046Z,41.37
2022-11-23T04:13:38.976Z,37.01
2022-11-23T04:16:29.040Z,36.60
2022-11-23T04:19:11.237Z,35.19
2022-11-23T04:22:00.048Z,34.36
2022-11-23T04:25:00.833Z,35.01
2022-11-23T04:27:50.049Z,34.15
2022-11-23T04:30:33.324Z,33.18
2022-11-23T04:33:21.936Z,34.64
2022-11-23T04:36:11.913Z,35.62
2022-11-23T04:39:01.299Z,34.04
2022-11-23T04:41:51.898Z,32.51
2022-11-23T04:44:48.048Z,32.17
2022-11-23T04:47:37.318Z,32.74
2022-11-23T04:50:21.947Z,31.69
2022-11-23T04:53:12.301Z,31.71
2022-11-23T04:55:55.982Z,31.47
2022-11-23T04:58:49.328Z,33.33
2022-11-23T05:01:32.958Z,34.77
2022-11-23T05:04:51.144Z,34.22
2022-11-23T05:07:44.248Z,32.16
2022-11-23T05:10:41.896Z,32.68
2022-11-23T05:13:24.795Z,32.67
2022-11-23T05:16:14.064Z,30.88
2022-11-23T05:18:57.169Z,30.23
2022-11-23T05:21:47.929Z,31.67
2022-11-23T05:24:44.911Z,31.27
2022-11-23T05:27:36.916Z,31.27
2022-11-23T05:30:20.258Z,32.71
2022-11-23T05:33:10.912Z,30.63
2022-11-23T05:35:54.258Z,31.53
2022-11-23T05:38:50.914Z,30.88
2022-11-23T05:41:45.977Z,31.83
2022-11-23T05:44:49.169Z,31.47
2022-11-23T05:47:44.940Z,31.47
2022-11-23T05:50:35.271Z,30.41
2022-11-23T05:53:53.129Z,29.56
2022-11-23T05:57:06.589Z,30.57
2022-11-23T05:59:56.929Z,28.50
2022-11-23T06:02:54.927Z,31.23
2022-11-23T06:05:40.491Z,31.51
2022-11-23T06:08:29.092Z,28.77
2022-11-23T06:11:13.484Z,29.44
2022-11-23T06:14:03.053Z,30.54
2022-11-23T06:16:45.358Z,28.38
2022-11-23T06:19:54.053Z,30.66
2022-11-23T06:22:36.244Z,28.17
2022-11-23T06:25:30.927Z,30.58
2022-11-23T06:28:30.249Z,30.10
2022-11-23T06:31:20.908Z,28.08
2022-11-23T06:34:10.277Z,28.94
2022-11-23T06:36:52.950Z,28.99
2022-11-23T06:39:42.332Z,29.71
2022-11-23T06:42:38.431Z,29.12
2022-11-23T06:45:34.235Z,29.17
2022-11-23T06:48:27.032Z,27.97
2022-11-23T06:51:10.214Z,29.24
2022-11-23T06:54:01.035Z,28.52
2022-11-23T06:56:43.217Z,30.08
2022-11-23T06:59:32.181Z,29.39
2022-11-23T07:02:21.902Z,27.69
2022-11-23T07:05:06.318Z,26.13
2022-11-23T07:07:56.031Z,26.74
2022-11-23T07:10:38.279Z,26.90
2022-11-23T07:13:31.009Z,26.98
2022-11-23T07:16:20.101Z,26.88
2022-11-23T07:19:08.298Z,26.21
2022-11-23T07:21:51.049Z,26.28
2022-11-23T07:24:39.517Z,26.33
2022-11-23T07:27:32.033Z,25.88
2022-11-23T07:30:28.976Z,25.90
2022-11-23T07:33:18.031Z,26.27
2022-11-23T07:36:10.585Z,26.19
2022-11-23T07:38:53.966Z,25.81
2022-11-23T07:41:43.033Z,26.02
2022-11-23T07:44:44.032Z,25.90
2022-11-23T07:47:32.295Z,25.84
2022-11-23T07:50:17.042Z,26.53
2022-11-23T07:53:06.275Z,27.54
2022-11-23T07:55:48.062Z,25.50
2022-11-23T07:58:30.203Z,26.78
2022-11-23T08:01:20.051Z,25.84
2022-11-23T08:04:02.210Z,26.25
2022-11-23T08:06:50.883Z,26.27
2022-11-23T08:09:39.894Z,25.98
2022-11-23T08:12:22.763Z,27.24
2022-11-23T08:15:11.946Z,26.07
2022-11-23T08:17:54.756Z,26.35
2022-11-23T08:20:44.048Z,24.45
2022-11-23T08:23:26.797Z,26.26
2022-11-23T08:26:15.926Z,26.59
2022-11-23T08:29:04.991Z,25.60
2022-11-23T08:31:53.873Z,26.65
2022-11-23T08:34:43.039Z,26.21
2022-11-23T08:37:25.261Z,25.05
2022-11-23T08:40:13.994Z,26.22
2022-11-23T08:42:56.223Z,25.50
2022-11-23T08:45:44.920Z,25.32
2022-11-23T08:48:33.892Z,25.00
2022-11-23T08:51:22.908Z,25.59
2022-11-23T08:54:12.185Z,26.65
2022-11-23T08:57:01.035Z,25.37
2022-11-23T08:59:50.329Z,25.15
2022-11-23T09:02:34.010Z,24.46
2022-11-23T09:05:22.941Z,24.55
2022-11-23T09:08:08.327Z,24.35
2022-11-23T09:10:57.085Z,24.29
2022-11-23T09:13:40.299Z,25.45
2022-11-23T09:16:33.868Z,25.33
2022-11-23T09:19:18.288Z,24.27
2022-11-23T09:22:07.054Z,24.36
2022-11-23T09:24:56.052Z,24.00
2022-11-23T09:27:44.257Z,25.09
2022-11-23T09:30:25.956Z,24.61
2022-11-23T09:33:15.948Z,25.83
2022-11-23T09:36:15.935Z,25.01
2022-11-23T09:39:04.888Z,25.43
2022-11-23T09:42:12.026Z,24.69
2022-11-23T09:44:54.181Z,24.44
2022-11-23T09:48:00.988Z,26.06
2022-11-23T09:50:59.275Z,25.51
2022-11-23T09:53:57.042Z,26.09
2022-11-23T09:56:41.835Z,25.55
2022-11-23T09:59:49.967Z,25.49
2022-11-23T10:02:43.975Z,26.50
2022-11-23T10:05:30.257Z,26.92
2022-11-23T10:08:38.887Z,26.68
2022-11-23T10:11:33.287Z,27.09
2022-11-23T10:14:32.210Z,25.60
2022-11-23T10:17:31.302Z,27.60
2022-11-23T10:20:48.032Z,26.84
2022-11-23T10:24:03.316Z,27.26
2022-11-23T10:27:07.063Z,27.21
2022-11-23T10:29:57.684Z,27.47
2022-11-23T10:32:55.017Z,27.14
2022-11-23T10:35:44.260Z,28.09
2022-11-23T10:38:28.957Z,28.27
2022-11-23T10:41:21.335Z,27.63
2022-11-23T10:44:32.371Z,29.33
2022-11-23T10:47:55.974Z,28.81
2022-11-23T10:50:42.277Z,29.74
2022-11-23T10:53:33.996Z,29.70
2022-11-23T10:56:21.260Z,30.00
2022-11-23T10:59:10.056Z,30.73
2022-11-23T11:02:11.288Z,30.99
2022-11-23T11:05:20.072Z,31.16
2022-11-23T11:08:09.251Z,33.07
2022-11-23T11:11:10.978Z,35.05
2022-11-23T11:14:02.997Z,34.45
2022-11-23T11:16:59.122Z,36.33
2022-11-23T11:19:50.044Z,38.19
2022-11-23T11:22:37.518Z,37.58
2022-11-23T11:25:45.897Z,36.42
2022-11-23T11:28:44.861Z,38.17
2022-11-23T11:31:47.944Z,38.47
2022-11-23T11:34:48.162Z,39.44
2022-11-23T11:37:52.041Z,40.71
2022-11-23T11:40:54.941Z,39.07
2022-11-23T11:43:50.033Z,39.53
2022-11-23T11:46:39.471Z,40.97
2022-11-23T11:49:38.996Z,40.63
2022-11-23T11:52:28.726Z,41.65
2022-11-23T11:55:33.065Z,42.56
2022-11-23T11:58:18.216Z,43.23
2022-11-23T12:01:43.007Z,44.68
2022-11-23T12:05:06.997Z,44.25
2022-11-23T12:08:21.031Z,44.43
2022-11-23T12:11:07.767Z,44.50
2022-11-23T12:13:57.957Z,44.68
2022-11-23T12:20:21.423Z,44.31
2022-11-23T12:23:30.973Z,46.58
2022-11-23T12:26:53.256Z,46.36
2022-11-23T12:29:54.974Z,45.94
2022-11-23T12:33:07.010Z,47.76
2022-11-23T12:36:07.286Z,46.91
2022-11-23T12:39:10.997Z,45.71
2022-11-23T12:41:57.482Z,46.55
2022-11-23T12:45:00.976Z,46.86
2022-11-23T12:47:58.456Z,46.93
2022-11-23T12:50:58.006Z,46.65
2022-11-23T12:54:12.450Z,47.38
2022-11-23T12:57:05.991Z,47.41
2022-11-23T12:59:57.284Z,47.33
2022-11-23T13:03:05.965Z,47.48
2022-11-23T13:06:28.965Z,49.38
2022-11-23T13:09:30.021Z,48.90
2022-11-23T13:12:25.015Z,49.64
2022-11-23T13:15:43.712Z,49.86
2022-11-23T13:19:09.962Z,49.75
2022-11-23T13:21:59.337Z,49.68
2022-11-23T13:24:45.975Z,50.38
2022-11-23T13:27:51.271Z,49.91
2022-11-23T13:31:13.261Z,49.91
2022-11-23T13:33:47.323Z,50.79
2022-11-23T13:37:10.551Z,49.37
2022-11-23T13:39:53.298Z,51.47
2022-11-23T13:42:45.924Z,51.43
2022-11-23T13:45:47.006Z,52.37
2022-11-23T13:51:41.028Z,52.07
2022-11-23T13:54:31.647Z,51.11
2022-11-23T13:57:21.951Z,51.71
2022-11-23T14:00:50.087Z,51.50
2022-11-23T14:03:51.430Z,51.11
2022-11-23T14:06:52.023Z,50.82
2022-11-23T14:09:53.265Z,51.53
2022-11-23T14:12:49.960Z,52.43
2022-11-23T14:15:43.961Z,51.78
2022-11-23T14:18:44.390Z,51.88
2022-11-23T14:21:49.057Z,51.76
2022-11-23T14:24:52.376Z,52.92
2022-11-23T14:28:05.979Z,53.48
2022-11-23T14:30:57.327Z,54.91
2022-11-23T14:33:52.059Z,54.89
2022-11-23T14:36:43.304Z,54.86
2022-11-23T14:40:00.053Z,55.18
2022-11-23T14:42:54.321Z,55.11
2022-11-23T14:45:42.065Z,55.61
2022-11-23T14:48:35.249Z,55.22
2022-11-23T14:51:39.053Z,55.56
2022-11-23T14:54:27.533Z,55.15
2022-11-23T14:57:11.935Z,56.12
2022-11-23T15:00:11.818Z,57.05
2022-11-23T15:03:07.242Z,56.02
2022-11-23T15:06:22.382Z,56.76
2022-11-23T15:09:42.041Z,57.19
2022-11-23T15:12:34.345Z,58.16
2022-11-23T15:15:41.144Z,57.55
2022-11-23T15:18:41.379Z,58.21
2022-11-23T15:21:33.006Z,57.82
2022-11-23T15:24:27.185Z,58.64
2022-11-23T15:27:20.855Z,58.57
2022-11-23T15:30:10.030Z,58.21
2022-11-23T15:32:53.928Z,58.26
2022-11-23T15:35:44.868Z,58.46
2022-11-23T15:38:28.282Z,57.89
2022-11-23T15:41:16.926Z,58.39
2022-11-23T15:44:07.273Z,58.65
2022-11-23T15:46:56.941Z,58.63
2022-11-23T15:49:39.346Z,58.92
2022-11-23T15:52:28.949Z,59.36
2022-11-23T15:55:16.907Z,59.53
2022-11-23T15:58:07.913Z,59.96
2022-11-23T16:01:05.453Z,60.32
2022-11-23T16:03:59.880Z,60.76
2022-11-23T16:06:56.847Z,60.82
2022-11-23T16:09:52.703Z,60.01
2022-11-23T16:12:41.872Z,60.44
2022-11-23T16:15:38.814Z,60.90
2022-11-23T16:18:39.987Z,60.73
2022-11-23T16:21:27.844Z,61.28
2022-11-23T16:24:28.434Z,60.96
2022-11-23T16:27:23.244Z,61.40
2022-11-23T16:30:06.018Z,61.22
2022-11-23T16:32:54.300Z,60.86
2022-11-23T16:35:36.946Z,61.18
2022-11-23T16:38:19.335Z,61.09
2022-11-23T16:41:07.976Z,61.82
2022-11-23T16:43:59.009Z,61.91
2022-11-23T16:46:47.967Z,61.92
2022-11-23T16:49:37.003Z,61.93
2022-11-23T16:52:19.285Z,62.46
2022-11-23T16:55:07.868Z,62.34
2022-11-23T16:58:00.999Z,63.24
2022-11-23T17:00:49.876Z,63.18
2022-11-23T17:03:32.327Z,62.98
2022-11-23T17:06:22.888Z,62.96
2022-11-23T17:09:08.087Z,63.14
2022-11-23T17:11:58.888Z,63.25
2022-11-23T17:14:52.983Z,63.60
2022-11-23T17:17:35.258Z,63.54
2022-11-23T17:20:27.920Z,63.55
2022-11-23T17:23:10.168Z,63.27
2022-11-23T17:25:58.976Z,63.31
2022-11-23T17:28:47.216Z,63.61
2022-11-23T17:31:29.960Z,64.18
2022-11-23T17:34:19.577Z,64.36
2022-11-23T17:37:02.012Z,64.61
2022-11-23T17:39:44.325Z,64.07
2022-11-23T17:42:33.859Z,63.75
2022-11-23T17:45:16.443Z,64.47
2022-11-23T17:48:04.853Z,64.44
2022-11-23T17:50:53.215Z,64.63
2022-11-23T17:53:36.018Z,64.66
2022-11-23T17:56:29.633Z,64.42
2022-11-23T17:59:20.038Z,64.93
2022-11-23T18:02:08.274Z,64.75
2022-11-23T18:04:51.042Z,65.09
2022-11-23T18:07:39.354Z,65.13
2022-11-23T18:10:21.971Z,65.19
2022-11-23T18:13:12.763Z,65.58
2022-11-23T18:15:55.953Z,64.58
2022-11-23T18:18:45.380Z,64.86
2022-11-23T18:21:27.881Z,65.03
2022-11-23T18:24:17.320Z,65.06
2022-11-23T18:27:12.003Z,64.66
2022-11-23T18:30:01.276Z,64.76
2022-11-23T18:32:43.867Z,64.68
2022-11-23T18:35:32.850Z,64.87
2022-11-23T18:38:15.308Z,65.87
2022-11-23T18:41:03.836Z,65.38
2022-11-23T18:43:46.254Z,65.53
2022-11-23T18:46:36.923Z,64.89
2022-11-23T18:49:20.320Z,66.16
2022-11-23T18:52:08.977Z,66.27
2022-11-23T18:54:51.396Z,65.39
2022-11-23T18:57:39.970Z,65.79
2022-11-23T19:00:22.506Z,65.56
2022-11-23T19:03:11.950Z,65.32
2022-11-23T19:06:01.050Z,65.12
2022-11-23T19:08:48.154Z,66.45
2022-11-23T19:11:39.929Z,66.29
2022-11-23T19:14:22.168Z,66.26
2022-11-23T19:17:10.820Z,66.48
2022-11-23T19:19:59.830Z,66.61
2022-11-23T19:22:43.264Z,66.50
2022-11-23T19:25:32.918Z,66.21
2022-11-23T19:28:21.170Z,66.46
2022-11-23T19:31:04.013Z,66.05
2022-11-23T19:33:53.879Z,66.41
2022-11-23T19:36:44.912Z,65.85
2022-11-23T19:39:27.153Z,66.76
2022-11-23T19:42:15.932Z,66.49
2022-11-23T19:45:04.325Z,66.91
2022-11-23T19:47:46.920Z,66.79
2022-11-23T19:50:29.358Z,67.06
2022-11-23T19:53:17.926Z,66.57
2022-11-23T19:56:09.233Z,66.98
2022-11-23T19:58:58.860Z,66.90
2022-11-23T20:01:48.090Z,66.35
2022-11-23T20:04:30.479Z,66.30
2022-11-23T20:07:21.108Z,65.47
2022-11-23T20:10:03.234Z,66.10
2022-11-23T20:12:51.950Z,66.13
2022-11-23T20:15:34.234Z,65.14
2022-11-23T20:18:29.553Z,65.32
2022-11-23T20:21:12.978Z,65.77
2022-11-23T20:24:13.245Z,65.55
2022-11-23T20:27:07.785Z,65.59
2022-11-23T20:29:56.981Z,65.86
2022-11-23T20:32:39.273Z,66.24
2022-11-23T20:35:28.294Z,66.05
2022-11-23T20:38:11.392Z,65.84
2022-11-23T20:41:00.964Z,66.20
2022-11-23T20:43:43.215Z,66.14
2022-11-23T20:49:35.462Z,66.56
2022-11-23T20:52:23.816Z,66.71
2022-11-23T20:55:06.385Z,66.45
2022-11-23T20:57:54.917Z,66.79
2022-11-23T21:00:48.653Z,67.12
2022-11-23T21:03:42.287Z,66.75
2022-11-23T21:06:24.982Z,67.22
2022-11-23T21:09:13.335Z,66.71
2022-11-23T21:12:13.813Z,66.87
2022-11-23T21:15:02.213Z,66.66
2022-11-23T21:17:43.863Z,66.70
2022-11-23T21:20:36.421Z,66.72
2022-11-23T21:23:18.823Z,67.74
2022-11-23T21:26:07.681Z,67.30
2022-11-23T21:28:56.951Z,67.28
2022-11-23T21:31:47.359Z,67.59
2022-11-23T21:34:34.283Z,67.58
2022-11-23T21:37:23.322Z,68.10
2022-11-23T21:40:04.857Z,67.53
2022-11-23T21:42:47.277Z,67.80
2022-11-23T21:45:36.121Z,67.68
2022-11-23T21:48:18.129Z,67.06
2022-11-23T21:51:26.899Z,67.66
2022-11-23T21:54:23.864Z,67.43
2022-11-23T21:57:12.201Z,68.14
2022-11-23T21:59:54.786Z,68.46
2022-11-23T22:02:47.134Z,67.76
2022-11-23T22:05:35.902Z,67.01
2022-11-23T22:08:31.385Z,67.11
2022-11-23T22:11:21.836Z,67.28
2022-11-23T22:14:16.000Z,66.58
2022-11-23T22:16:59.407Z,65.94
2022-11-23T22:19:47.845Z,65.34
2022-11-23T22:22:30.625Z,64.95
2022-11-23T22:25:19.976Z,64.56
2022-11-23T22:28:14.792Z,63.92
2022-11-23T22:31:03.947Z,64.56
2022-11-23T22:33:53.953Z,64.17
2022-11-23T22:36:42.237Z,64.53
2022-11-23T22:39:23.833Z,64.15
2022-11-23T22:42:13.455Z,63.95
2022-11-23T22:44:55.178Z,63.66
2022-11-23T22:47:37.283Z,63.39
2022-11-23T22:50:25.981Z,63.62
2022-11-23T22:53:08.106Z,64.15
2022-11-23T22:55:56.934Z,64.21
2022-11-23T22:58:45.648Z,64.19
2022-11-23T23:01:30.990Z,64.53
2022-11-23T23:04:20.237Z,64.35
2022-11-23T23:07:02.929Z,64.89
2022-11-23T23:09:51.205Z,64.71
2022-11-23T23:12:33.952Z,65.36
2022-11-23T23:15:22.267Z,65.48
2022-11-23T23:18:04.907Z,65.94
2022-11-23T23:20:53.208Z,66.23
2022-11-23T23:23:35.991Z,65.27
2022-11-23T23:26:20.554Z,66.26
2022-11-23T23:29:11.916Z,66.03
2022-11-23T23:31:54.209Z,66.14
2022-11-23T23:34:42.823Z,66.31
2022-11-23T23:37:32.240Z,66.92
2022-11-23T23:40:14.911Z,66.50
2022-11-23T23:43:05.201Z,65.82
2022-11-23T23:45:47.258Z,64.61
2022-11-23T23:48:34.805Z,65.18
2022-11-23T23:51:24.916Z,63.99
2022-11-23T23:54:07.386Z,63.35
2022-11-23T23:56:55.925Z,63.45
2022-11-23T23:59:45.237Z,62.07
